Item Display Status Serial CT Sensor

Mooring Depth: 1 m

 

Deployed Sensor

  • Serial Number: 12349
  • NDBC Property Number: 38547
  • Start Date: 5/26/2023 (13:26:21 Z)
  • End Date: Currently Active
Water Temperature [°C]     6 entries per hour
Showing data from 3/25/2024 (03:20:00 Z) to 3/24/2024 (00:00:01 Z)
Previous Next [ Day | 3-Days | 7-Days ]
First Last
Prev [ Day | 3-Days | 7-Days ] Next
First Last

Start Time:     :
End Time:     :     
Time (in GMT) :00 :50 :40 :30 :20 :10
Previous Next [ Day | 3-Days | 7-Days ]
First Last
Prev [ Day | 3-Days | 7-Days ] Next
First Last


123 => good data
MM => data is determined as missing
-- => data not received/configured
Back to Top Back to Top
3/25/2024 04:00 to 3:10 -- -- -- -- 28.826 28.764
3/25/2024 03:00 to 2:10 28.824 28.787 28.811 28.823 28.823 28.790
3/25/2024 02:00 to 1:10 28.792 28.782 28.821 28.817 28.790 28.792
3/25/2024 01:00 to 0:10 28.772 28.759 28.710 28.741 28.731 28.709
3/25/2024 00:00 to 23:10 28.674 28.747 28.713 28.679 28.681 28.718
3/24/2024 23:00 to 22:10 28.677 28.673 28.674 28.676 28.643 28.648
3/24/2024 22:00 to 21:10 28.661 28.642 28.621 28.618 28.623 28.609
3/24/2024 21:00 to 20:10 28.600 28.616 28.600 28.580 28.576 28.569
3/24/2024 20:00 to 19:10 28.566 28.575 28.573 28.572 28.566 28.565
3/24/2024 19:00 to 18:10 28.565 28.564 28.573 28.573 28.571 28.571
3/24/2024 18:00 to 17:10 28.580 28.580 28.576 28.585 28.585 28.595
3/24/2024 17:00 to 16:10 28.580 28.602 28.609 28.610 28.617 28.631
3/24/2024 16:00 to 15:10 28.637 28.647 28.653 28.650 28.653 28.665
3/24/2024 15:00 to 14:10 28.675 28.679 28.688 28.693 28.700 28.709
3/24/2024 14:00 to 13:10 28.699 28.712 28.717 28.707 28.710 28.714
3/24/2024 13:00 to 12:10 28.724 28.717 28.719 28.710 28.713 28.727
3/24/2024 12:00 to 11:10 28.732 28.732 28.739 28.739 28.736 28.726
3/24/2024 11:00 to 10:10 28.753 28.734 28.737 28.745 28.750 28.744
3/24/2024 10:00 to 9:10 28.761 28.745 28.752 28.767 28.765 28.775
3/24/2024 09:00 to 8:10 28.784 28.793 28.775 28.775 28.773 28.787
3/24/2024 08:00 to 7:10 28.793 28.788 28.780 28.782 28.787 --
3/24/2024 07:00 to 6:10 28.798 28.779 28.793 28.791 28.811 28.785
3/24/2024 06:00 to 5:10 28.803 28.815 28.824 28.830 28.829 28.826
3/24/2024 05:00 to 4:10 28.781 28.795 28.816 28.815 28.738 28.743
3/24/2024 04:00 to 3:10 28.746 28.743 28.731 28.736 28.736 28.766
3/24/2024 03:00 to 2:10 28.789 28.780 28.781 28.792 28.787 28.788
3/24/2024 02:00 to 1:10 28.780 28.820 28.766 28.751 28.780 28.774
3/24/2024 01:00 to 0:10 28.813 28.781 28.785 28.757 28.718 28.721

 

 

 

Conductivity [S/m]     6 entries per hour
Showing data from 3/25/2024 (03:20:00 Z) to 3/24/2024 (00:00:01 Z)
Previous Next [ Day | 3-Days | 7-Days ]
First Last
Prev [ Day | 3-Days | 7-Days ] Next
First Last

Start Time:     :
End Time:     :     
Time (in GMT) :00 :50 :40 :30 :20 :10
Previous Next [ Day | 3-Days | 7-Days ]
First Last
Prev [ Day | 3-Days | 7-Days ] Next
First Last


123 => good data
MM => data is determined as missing
-- => data not received/configured
Back to Top Back to Top
3/25/2024 04:00 to 3:10 -- -- -- -- 5.71571 5.70932
3/25/2024 03:00 to 2:10 5.71711 5.71343 5.71583 5.71663 5.71659 5.71341
3/25/2024 02:00 to 1:10 5.71454 5.71308 5.71722 5.71572 5.71313 5.71295
3/25/2024 01:00 to 0:10 5.71151 5.70987 5.70516 5.70756 5.70661 5.70466
3/25/2024 00:00 to 23:10 5.70089 5.70848 5.70513 5.70161 5.70178 5.70480
3/24/2024 23:00 to 22:10 5.70149 5.70140 5.70140 5.70318 5.69906 5.69879
3/24/2024 22:00 to 21:10 5.70053 5.69890 5.69621 5.69587 5.69650 5.69533
3/24/2024 21:00 to 20:10 5.69443 5.69607 5.69414 5.69225 5.69210 5.69149
3/24/2024 20:00 to 19:10 5.69110 5.69218 5.69193 5.69174 5.69115 5.69105
3/24/2024 19:00 to 18:10 5.69073 5.69092 5.69200 5.69171 5.69159 5.69208
3/24/2024 18:00 to 17:10 5.69285 5.69279 5.69269 5.69346 5.69371 5.69463
3/24/2024 17:00 to 16:10 5.69314 5.69587 5.69684 5.69748 5.69809 5.70044
3/24/2024 16:00 to 15:10 5.70110 5.70250 5.70372 5.70407 5.70502 5.70665
3/24/2024 15:00 to 14:10 5.70768 5.70828 5.70923 5.71014 5.71020 5.71144
3/24/2024 14:00 to 13:10 5.71041 5.71158 5.71238 5.71216 5.71174 5.71256
3/24/2024 13:00 to 12:10 5.71298 5.71305 5.71280 5.71159 5.71207 5.71342
3/24/2024 12:00 to 11:10 5.71413 5.71397 5.71439 5.71438 5.71408 5.71352
3/24/2024 11:00 to 10:10 5.71572 5.71407 5.71392 5.71447 5.71531 5.71509
3/24/2024 10:00 to 9:10 5.71621 5.71504 5.71577 5.71705 5.71712 5.71851
3/24/2024 09:00 to 8:10 5.71892 5.72012 5.71860 5.71864 5.71852 5.71998
3/24/2024 08:00 to 7:10 5.72061 5.72036 5.71931 5.71990 5.72010 5.72135
3/24/2024 07:00 to 6:10 5.72158 5.71933 5.72075 5.72082 5.72209 5.71981
3/24/2024 06:00 to 5:10 5.72166 5.72251 5.72360 5.72413 5.72385 5.72263
3/24/2024 05:00 to 4:10 5.71714 5.71852 5.72023 5.72036 5.70925 5.70946
3/24/2024 04:00 to 3:10 5.71016 5.70977 5.70818 5.70834 5.70883 5.71190
3/24/2024 03:00 to 2:10 5.71488 5.71347 5.71351 5.71479 5.71258 5.71397
3/24/2024 02:00 to 1:10 5.71274 5.71642 5.71133 5.70981 5.71398 5.71243
3/24/2024 01:00 to 0:10 5.71670 5.71359 5.71349 5.71083 5.70564 5.70678

 

 

 

Salinity [psu]     6 entries per hour
Showing data from 3/26/2024 (16:00:00 Z) to 3/25/2024 (00:00:01 Z)
Previous Next [ Day | 3-Days | 7-Days ]
First Last
Prev [ Day | 3-Days | 7-Days ] Next
First Last

Start Time:     :
End Time:     :     
Time (in GMT) :00 :50 :40 :30 :20 :10
Previous Next [ Day | 3-Days | 7-Days ]
First Last
Prev [ Day | 3-Days | 7-Days ] Next
First Last


123 => good data
MM => data is determined as missing
-- => data not received/configured
Back to Top Back to Top
3/26/2024 16:00 to 15:10 35.10 35.10 35.11 35.10 35.10 35.10
3/26/2024 15:00 to 14:10 35.10 35.10 35.10 35.11 35.10 35.10
3/26/2024 14:00 to 13:10 35.10 35.10 35.10 35.10 35.10 35.10
3/26/2024 13:00 to 12:10 35.10 35.09 35.10 35.09 35.09 35.10
3/26/2024 12:00 to 11:10 35.10 35.09 35.09 35.09 35.09 35.09
3/26/2024 11:00 to 10:10 35.09 35.09 35.09 35.09 35.09 35.09
3/26/2024 10:00 to 9:10 35.09 35.09 35.08 35.09 35.09 35.09
3/26/2024 09:00 to 8:10 35.08 35.09 35.09 35.08 35.08 35.08
3/26/2024 08:00 to 7:10 35.08 35.08 35.08 35.08 35.08 35.08
3/26/2024 07:00 to 6:10 35.08 35.07 35.07 35.08 35.07 35.08
3/26/2024 06:00 to 5:10 35.08 35.07 35.07 35.07 35.07 35.07
3/26/2024 05:00 to 4:10 35.07 35.07 35.07 35.07 35.07 35.07
3/26/2024 04:00 to 3:10 35.07 35.07 35.07 35.07 35.07 35.07
3/26/2024 03:00 to 2:10 35.07 35.07 35.07 35.06 35.07 35.07
3/26/2024 02:00 to 1:10 35.06 35.06 35.06 35.07 35.06 35.07
3/26/2024 01:00 to 0:10 35.07 35.06 35.07 35.07 35.06 35.06
3/26/2024 00:00 to 23:10 35.06 35.06 35.06 35.06 35.06 35.07
3/25/2024 23:00 to 22:10 35.06 35.06 35.06 35.06 35.06 35.06
3/25/2024 22:00 to 21:10 35.06 35.06 35.06 35.06 35.06 35.06
3/25/2024 21:00 to 20:10 35.06 35.06 35.05 35.05 35.05 35.06
3/25/2024 20:00 to 19:10 35.05 35.05 35.05 -- 35.05 35.05
3/25/2024 19:00 to 18:10 35.05 35.05 35.05 35.05 35.05 35.05
3/25/2024 18:00 to 17:10 35.05 35.05 35.04 35.04 35.04 35.05
3/25/2024 17:00 to 16:10 35.04 35.04 35.04 35.04 35.04 35.04
3/25/2024 16:00 to 15:10 35.04 35.04 35.04 35.04 35.04 35.04
3/25/2024 15:00 to 14:10 35.04 35.04 35.04 35.04 35.04 35.04
3/25/2024 14:00 to 13:10 35.04 35.04 35.04 35.04 35.04 35.04
3/25/2024 13:00 to 12:10 35.04 35.04 35.04 35.04 35.04 35.04
3/25/2024 12:00 to 11:10 35.04 35.03 35.04 35.04 35.04 35.04
3/25/2024 11:00 to 10:10 35.04 35.04 35.03 35.04 35.04 35.04
3/25/2024 10:00 to 9:10 35.04 35.04 35.03 35.03 35.04 35.04
3/25/2024 09:00 to 8:10 35.04 35.04 35.04 35.03 35.03 35.04
3/25/2024 08:00 to 7:10 35.03 35.03 35.03 35.03 35.03 35.03
3/25/2024 07:00 to 6:10 35.03 35.03 35.03 35.03 35.03 35.03
3/25/2024 06:00 to 5:10 35.03 35.03 35.03 35.03 35.03 35.03
3/25/2024 05:00 to 4:10 35.04 35.04 35.04 35.04 35.04 35.04
3/25/2024 04:00 to 3:10 35.04 35.04 -- -- 35.04 35.04
3/25/2024 03:00 to 2:10 35.05 35.05 35.05 35.04 35.04 35.05
3/25/2024 02:00 to 1:10 35.05 35.05 35.05 35.04 35.04 35.04
3/25/2024 01:00 to 0:10 35.05 35.04 35.05 35.04 35.04 35.05